Atkinson, Nebraska
Current Conditions -  °F | °C
As of 10:15 AM on Thursday 18 Dec 2014 (Local Time) from KONL Reporting Station
Overcast Overcast  
Wind Chill: 19°   Ceiling: 700
Heat Index: 25°   Visibility: 7mi
Dew Point: 24°   Wind: 5mph
Humidity: 96%   Direction: 180°S
Pressure: 30.17"   Gusts: NA
Location:  42.53°N, 98.98°W
Report Text: KONL 181615Z AUTO 18004KT 7SM OVC007 M04/M05 A3017 RMK AO2 T10401046
Loading
Personal Weather Stations






























Interactive Weather Map New forecast layout! Learn more

10-Day Weather Forecast

Advertisements
Track Severe Weather on mobile